sensor_id;sensor_type;location;lat;lon;timestamp;pressure;altitude;pressure_sealevel;temperature;humidity
19114;BME280;9689;51.052;13.772;2023-08-24T00:03:51;100648.13;;;18.87;71.34
19114;BME280;9689;51.052;13.772;2023-08-24T00:08:52;100649.63;;;18.74;71.79
19114;BME280;9689;51.052;13.772;2023-08-24T00:13:53;100652.53;;;18.87;71.65
19114;BME280;9689;51.052;13.772;2023-08-24T00:18:55;100653.03;;;18.95;71.41
19114;BME280;9689;51.052;13.772;2023-08-24T00:23:56;100649.59;;;19.10;70.73
19114;BME280;9689;51.052;13.772;2023-08-24T00:28:57;100653.09;;;19.28;69.90
19114;BME280;9689;51.052;13.772;2023-08-24T00:33:59;100644.94;;;18.98;70.59
19114;BME280;9689;51.052;13.772;2023-08-24T00:38:59;100648.28;;;19.19;69.88
19114;BME280;9689;51.052;13.772;2023-08-24T00:44:01;100648.94;;;19.24;69.94
19114;BME280;9689;51.052;13.772;2023-08-24T00:49:04;100650.56;;;19.27;69.40
19114;BME280;9689;51.052;13.772;2023-08-24T00:54:05;100651.00;;;19.17;69.07
19114;BME280;9689;51.052;13.772;2023-08-24T00:59:07;100656.22;;;19.19;69.06
19114;BME280;9689;51.052;13.772;2023-08-24T01:04:09;100643.72;;;19.05;68.69
19114;BME280;9689;51.052;13.772;2023-08-24T01:09:10;100647.59;;;18.98;69.25
19114;BME280;9689;51.052;13.772;2023-08-24T01:14:21;100644.38;;;18.91;69.39
19114;BME280;9689;51.052;13.772;2023-08-24T01:19:36;100640.19;;;18.50;70.68
19114;BME280;9689;51.052;13.772;2023-08-24T01:24:40;100635.84;;;18.49;71.14
19114;BME280;9689;51.052;13.772;2023-08-24T01:29:47;100628.59;;;18.54;71.09
19114;BME280;9689;51.052;13.772;2023-08-24T01:34:48;100626.78;;;18.73;69.74
19114;BME280;9689;51.052;13.772;2023-08-24T01:39:56;100637.59;;;18.69;70.26
19114;BME280;9689;51.052;13.772;2023-08-24T01:45:03;100628.75;;;18.70;70.55
19114;BME280;9689;51.052;13.772;2023-08-24T01:50:07;100623.47;;;18.70;70.29
19114;BME280;9689;51.052;13.772;2023-08-24T01:55:08;100621.38;;;18.57;71.00
19114;BME280;9689;51.052;13.772;2023-08-24T02:00:11;100621.53;;;18.35;71.57
19114;BME280;9689;51.052;13.772;2023-08-24T02:05:12;100632.19;;;18.34;72.00
19114;BME280;9689;51.052;13.772;2023-08-24T02:10:13;100633.03;;;18.34;71.54
19114;BME280;9689;51.052;13.772;2023-08-24T02:15:16;100626.41;;;18.07;72.28
19114;BME280;9689;51.052;13.772;2023-08-24T02:20:17;100613.47;;;18.01;72.98
19114;BME280;9689;51.052;13.772;2023-08-24T02:25:17;100628.38;;;18.21;71.92
19114;BME280;9689;51.052;13.772;2023-08-24T02:30:20;100630.16;;;18.20;71.77
19114;BME280;9689;51.052;13.772;2023-08-24T02:35:21;100620.91;;;18.12;72.20
19114;BME280;9689;51.052;13.772;2023-08-24T02:40:22;100618.06;;;18.16;71.65
19114;BME280;9689;51.052;13.772;2023-08-24T02:45:24;100610.50;;;17.90;72.27
19114;BME280;9689;51.052;13.772;2023-08-24T02:50:25;100620.72;;;17.96;72.56
19114;BME280;9689;51.052;13.772;2023-08-24T02:55:26;100618.16;;;17.94;72.59
19114;BME280;9689;51.052;13.772;2023-08-24T03:00:28;100618.00;;;17.78;73.05
19114;BME280;9689;51.052;13.772;2023-08-24T03:05:29;100612.13;;;17.72;74.04
19114;BME280;9689;51.052;13.772;2023-08-24T03:10:30;100618.66;;;17.84;73.56
19114;BME280;9689;51.052;13.772;2023-08-24T03:15:34;100623.44;;;17.94;73.05
19114;BME280;9689;51.052;13.772;2023-08-24T03:20:38;100620.66;;;17.97;72.83
19114;BME280;9689;51.052;13.772;2023-08-24T03:25:40;100614.88;;;17.89;72.76
19114;BME280;9689;51.052;13.772;2023-08-24T03:30:47;100607.78;;;17.71;73.48
19114;BME280;9689;51.052;13.772;2023-08-24T03:35:49;100610.25;;;17.75;73.63
19114;BME280;9689;51.052;13.772;2023-08-24T03:40:51;100610.38;;;17.72;73.45
19114;BME280;9689;51.052;13.772;2023-08-24T03:45:53;100608.19;;;17.82;72.69
19114;BME280;9689;51.052;13.772;2023-08-24T03:50:54;100614.09;;;17.67;73.08
19114;BME280;9689;51.052;13.772;2023-08-24T03:55:55;100613.34;;;17.65;73.64
19114;BME280;9689;51.052;13.772;2023-08-24T04:00:57;100616.81;;;17.65;73.58
19114;BME280;9689;51.052;13.772;2023-08-24T04:05:58;100616.78;;;17.46;74.02
19114;BME280;9689;51.052;13.772;2023-08-24T04:11:01;100612.75;;;17.58;73.69
19114;BME280;9689;51.052;13.772;2023-08-24T04:16:04;100605.81;;;17.76;72.79
19114;BME280;9689;51.052;13.772;2023-08-24T04:21:05;100602.13;;;17.60;73.01
19114;BME280;9689;51.052;13.772;2023-08-24T04:26:06;100605.22;;;17.49;73.47
19114;BME280;9689;51.052;13.772;2023-08-24T04:31:08;100609.06;;;17.21;74.65
19114;BME280;9689;51.052;13.772;2023-08-24T04:36:09;100609.69;;;17.06;75.47
19114;BME280;9689;51.052;13.772;2023-08-24T04:41:10;100608.09;;;17.02;75.26
19114;BME280;9689;51.052;13.772;2023-08-24T04:46:13;100614.97;;;17.06;75.20
19114;BME280;9689;51.052;13.772;2023-08-24T04:51:14;100616.75;;;17.06;75.79
19114;BME280;9689;51.052;13.772;2023-08-24T04:56:14;100620.03;;;17.11;75.07
19114;BME280;9689;51.052;13.772;2023-08-24T05:01:19;100622.03;;;17.26;75.33
19114;BME280;9689;51.052;13.772;2023-08-24T05:06:21;100621.94;;;17.28;75.00
19114;BME280;9689;51.052;13.772;2023-08-24T05:11:23;100617.28;;;17.34;74.33
19114;BME280;9689;51.052;13.772;2023-08-24T05:16:27;100621.69;;;17.34;74.85
19114;BME280;9689;51.052;13.772;2023-08-24T05:21:28;100621.16;;;17.26;75.42
19114;BME280;9689;51.052;13.772;2023-08-24T05:26:29;100618.81;;;17.40;74.00
19114;BME280;9689;51.052;13.772;2023-08-24T05:31:31;100621.69;;;17.54;73.84
19114;BME280;9689;51.052;13.772;2023-08-24T05:36:32;100623.13;;;17.61;73.53
19114;BME280;9689;51.052;13.772;2023-08-24T05:41:33;100614.94;;;17.88;72.48
19114;BME280;9689;51.052;13.772;2023-08-24T05:46:35;100614.97;;;18.06;71.74
19114;BME280;9689;51.052;13.772;2023-08-24T05:51:36;100598.59;;;18.19;70.21
19114;BME280;9689;51.052;13.772;2023-08-24T05:56:36;100599.59;;;18.16;70.34
19114;BME280;9689;51.052;13.772;2023-08-24T06:01:39;100605.22;;;18.27;69.83
19114;BME280;9689;51.052;13.772;2023-08-24T06:06:40;100611.91;;;18.34;69.95
19114;BME280;9689;51.052;13.772;2023-08-24T06:11:41;100599.06;;;18.46;69.43
19114;BME280;9689;51.052;13.772;2023-08-24T06:16:43;100596.63;;;18.60;68.66
19114;BME280;9689;51.052;13.772;2023-08-24T06:21:44;100590.78;;;18.72;67.56
19114;BME280;9689;51.052;13.772;2023-08-24T06:26:45;100581.13;;;18.71;68.07
19114;BME280;9689;51.052;13.772;2023-08-24T06:31:47;100581.47;;;18.82;67.71
19114;BME280;9689;51.052;13.772;2023-08-24T06:36:49;100585.72;;;19.02;67.17
19114;BME280;9689;51.052;13.772;2023-08-24T06:41:51;100585.22;;;19.13;66.92
19114;BME280;9689;51.052;13.772;2023-08-24T06:46:58;100585.69;;;19.21;67.13
19114;BME280;9689;51.052;13.772;2023-08-24T06:52:01;100580.69;;;19.32;66.43
19114;BME280;9689;51.052;13.772;2023-08-24T06:57:03;100585.94;;;19.49;65.49
19114;BME280;9689;51.052;13.772;2023-08-24T07:02:06;100585.78;;;19.70;65.15
19114;BME280;9689;51.052;13.772;2023-08-24T07:07:07;100591.09;;;19.86;63.72
19114;BME280;9689;51.052;13.772;2023-08-24T07:12:09;100576.88;;;20.04;64.00
19114;BME280;9689;51.052;13.772;2023-08-24T07:17:11;100577.31;;;20.28;63.13
19114;BME280;9689;51.052;13.772;2023-08-24T07:22:12;100572.13;;;20.42;63.04
19114;BME280;9689;51.052;13.772;2023-08-24T07:27:13;100564.41;;;20.69;61.87
19114;BME280;9689;51.052;13.772;2023-08-24T07:32:15;100562.59;;;20.85;61.17
19114;BME280;9689;51.052;13.772;2023-08-24T07:37:16;100555.16;;;21.06;60.36
19114;BME280;9689;51.052;13.772;2023-08-24T07:42:19;100540.31;;;21.18;60.16
19114;BME280;9689;51.052;13.772;2023-08-24T07:47:22;100563.09;;;21.36;58.91
19114;BME280;9689;51.052;13.772;2023-08-24T07:52:22;100552.13;;;21.57;59.21
19114;BME280;9689;51.052;13.772;2023-08-24T07:57:26;100554.50;;;21.76;58.24
19114;BME280;9689;51.052;13.772;2023-08-24T08:02:28;100548.66;;;21.97;58.10
19114;BME280;9689;51.052;13.772;2023-08-24T08:07:29;100542.03;;;22.05;57.45
19114;BME280;9689;51.052;13.772;2023-08-24T08:12:30;100541.22;;;22.31;56.71
19114;BME280;9689;51.052;13.772;2023-08-24T08:17:33;100546.72;;;22.42;55.63
19114;BME280;9689;51.052;13.772;2023-08-24T08:22:34;100549.13;;;22.60;55.28
19114;BME280;9689;51.052;13.772;2023-08-24T08:27:37;100541.03;;;22.88;54.51
19114;BME280;9689;51.052;13.772;2023-08-24T08:32:40;100537.00;;;23.08;53.90
19114;BME280;9689;51.052;13.772;2023-08-24T08:37:41;100535.63;;;23.28;53.24
19114;BME280;9689;51.052;13.772;2023-08-24T08:42:42;100531.91;;;23.56;51.49
19114;BME280;9689;51.052;13.772;2023-08-24T08:47:44;100523.63;;;23.73;51.20
19114;BME280;9689;51.052;13.772;2023-08-24T08:52:45;100515.66;;;23.97;48.91
19114;BME280;9689;51.052;13.772;2023-08-24T08:57:47;100515.94;;;24.18;47.38
19114;BME280;9689;51.052;13.772;2023-08-24T09:02:52;100514.50;;;24.38;46.83
19114;BME280;9689;51.052;13.772;2023-08-24T09:07:54;100494.94;;;24.50;47.44
19114;BME280;9689;51.052;13.772;2023-08-24T09:12:55;100474.91;;;24.79;45.84
19114;BME280;9689;51.052;13.772;2023-08-24T09:17:58;100474.88;;;25.03;44.43
19114;BME280;9689;51.052;13.772;2023-08-24T09:23:00;100464.22;;;25.15;41.93
19114;BME280;9689;51.052;13.772;2023-08-24T09:28:02;100469.44;;;25.39;40.43
19114;BME280;9689;51.052;13.772;2023-08-24T09:33:10;100449.66;;;25.75;39.34
19114;BME280;9689;51.052;13.772;2023-08-24T09:38:17;100447.19;;;25.94;38.58
19114;BME280;9689;51.052;13.772;2023-08-24T09:43:19;100437.56;;;26.35;38.75
19114;BME280;9689;51.052;13.772;2023-08-24T09:48:22;100438.22;;;26.59;36.09
19114;BME280;9689;51.052;13.772;2023-08-24T09:53:28;100413.53;;;26.97;35.82
19114;BME280;9689;51.052;13.772;2023-08-24T09:58:33;100417.03;;;27.59;34.55
19114;BME280;9689;51.052;13.772;2023-08-24T10:03:39;100385.25;;;28.24;34.82
19114;BME280;9689;51.052;13.772;2023-08-24T10:08:44;100390.94;;;28.96;33.77
19114;BME280;9689;51.052;13.772;2023-08-24T10:13:50;100397.94;;;29.07;33.51
19114;BME280;9689;51.052;13.772;2023-08-24T10:18:55;100392.91;;;29.59;32.15
19114;BME280;9689;51.052;13.772;2023-08-24T10:23:56;100394.84;;;29.67;32.17
19114;BME280;9689;51.052;13.772;2023-08-24T10:28:57;100396.03;;;29.82;31.79
19114;BME280;9689;51.052;13.772;2023-08-24T10:34:05;100388.25;;;29.97;31.62
19114;BME280;9689;51.052;13.772;2023-08-24T10:39:06;100389.72;;;30.45;30.51
19114;BME280;9689;51.052;13.772;2023-08-24T10:44:07;100379.69;;;30.55;30.24
19114;BME280;9689;51.052;13.772;2023-08-24T10:49:21;100375.16;;;30.11;30.39
19114;BME280;9689;51.052;13.772;2023-08-24T10:54:30;100366.13;;;30.64;30.20
19114;BME280;9689;51.052;13.772;2023-08-24T10:59:34;100356.03;;;30.84;29.17
19114;BME280;9689;51.052;13.772;2023-08-24T11:05:06;100357.56;;;30.87;28.70
19114;BME280;9689;51.052;13.772;2023-08-24T11:10:12;100345.56;;;30.29;29.46
19114;BME280;9689;51.052;13.772;2023-08-24T11:15:29;100350.34;;;29.37;31.37
19114;BME280;9689;51.052;13.772;2023-08-24T11:20:32;100347.59;;;29.46;32.11
19114;BME280;9689;51.052;13.772;2023-08-24T11:25:35;100331.53;;;30.00;32.04
19114;BME280;9689;51.052;13.772;2023-08-24T11:30:36;100314.91;;;30.48;30.96
19114;BME280;9689;51.052;13.772;2023-08-24T11:35:39;100323.66;;;30.68;30.75
19114;BME280;9689;51.052;13.772;2023-08-24T11:40:40;100309.03;;;30.71;31.33
19114;BME280;9689;51.052;13.772;2023-08-24T11:45:40;100290.53;;;30.16;30.38
19114;BME280;9689;51.052;13.772;2023-08-24T11:50:43;100273.00;;;30.11;30.80
19114;BME280;9689;51.052;13.772;2023-08-24T11:55:44;100236.81;;;30.06;30.59
19114;BME280;9689;51.052;13.772;2023-08-24T12:01:04;100225.22;;;30.05;32.50
19114;BME280;9689;51.052;13.772;2023-08-24T12:06:12;100218.84;;;29.80;32.71
19114;BME280;9689;51.052;13.772;2023-08-24T12:11:16;100206.28;;;29.81;32.46
19114;BME280;9689;51.052;13.772;2023-08-24T12:16:18;100204.78;;;29.87;32.66
19114;BME280;9689;51.052;13.772;2023-08-24T12:21:20;100206.31;;;29.89;33.28
19114;BME280;9689;51.052;13.772;2023-08-24T12:26:22;100204.06;;;30.28;32.22
19114;BME280;9689;51.052;13.772;2023-08-24T12:31:26;100209.19;;;30.82;31.80
19114;BME280;9689;51.052;13.772;2023-08-24T12:36:28;100228.59;;;31.10;31.28
19114;BME280;9689;51.052;13.772;2023-08-24T12:41:29;100235.47;;;30.96;32.08
19114;BME280;9689;51.052;13.772;2023-08-24T12:46:30;100230.22;;;30.78;31.50
19114;BME280;9689;51.052;13.772;2023-08-24T12:51:32;100203.03;;;30.63;32.45
19114;BME280;9689;51.052;13.772;2023-08-24T12:56:33;100216.13;;;30.50;32.07
19114;BME280;9689;51.052;13.772;2023-08-24T13:01:34;100214.06;;;30.78;30.99
19114;BME280;9689;51.052;13.772;2023-08-24T13:06:37;100210.25;;;30.97;30.11
19114;BME280;9689;51.052;13.772;2023-08-24T13:11:38;100194.03;;;30.81;31.11
19114;BME280;9689;51.052;13.772;2023-08-24T13:16:38;100186.88;;;30.55;32.40
19114;BME280;9689;51.052;13.772;2023-08-24T13:21:40;100176.50;;;30.00;33.75
19114;BME280;9689;51.052;13.772;2023-08-24T13:26:41;100160.84;;;29.70;34.63
19114;BME280;9689;51.052;13.772;2023-08-24T13:31:42;100148.25;;;29.70;35.01
19114;BME280;9689;51.052;13.772;2023-08-24T13:36:44;100137.25;;;29.81;35.26
19114;BME280;9689;51.052;13.772;2023-08-24T13:41:45;100125.00;;;29.87;35.27
19114;BME280;9689;51.052;13.772;2023-08-24T13:46:46;100120.16;;;30.17;35.01
19114;BME280;9689;51.052;13.772;2023-08-24T13:51:48;100114.00;;;30.24;34.29
19114;BME280;9689;51.052;13.772;2023-08-24T13:56:49;100120.53;;;30.30;33.35
19114;BME280;9689;51.052;13.772;2023-08-24T14:01:50;100110.94;;;30.19;33.94
19114;BME280;9689;51.052;13.772;2023-08-24T14:06:52;100116.75;;;30.49;33.76
19114;BME280;9689;51.052;13.772;2023-08-24T14:11:53;100106.09;;;30.31;33.93
19114;BME280;9689;51.052;13.772;2023-08-24T14:16:54;100103.47;;;30.47;33.73
19114;BME280;9689;51.052;13.772;2023-08-24T14:21:57;100098.59;;;30.43;34.55
19114;BME280;9689;51.052;13.772;2023-08-24T14:26:58;100091.53;;;30.58;34.61
19114;BME280;9689;51.052;13.772;2023-08-24T14:31:59;100097.50;;;30.70;33.79
19114;BME280;9689;51.052;13.772;2023-08-24T14:37:01;100089.44;;;30.78;33.37
19114;BME280;9689;51.052;13.772;2023-08-24T14:42:02;100086.09;;;30.76;33.76
19114;BME280;9689;51.052;13.772;2023-08-24T14:47:04;100064.38;;;30.69;33.70
19114;BME280;9689;51.052;13.772;2023-08-24T14:52:07;100069.63;;;30.87;34.77
19114;BME280;9689;51.052;13.772;2023-08-24T14:57:08;100066.22;;;31.01;34.63
19114;BME280;9689;51.052;13.772;2023-08-24T15:02:08;100057.50;;;31.07;34.25
19114;BME280;9689;51.052;13.772;2023-08-24T15:07:11;100054.13;;;31.13;34.31
19114;BME280;9689;51.052;13.772;2023-08-24T15:12:11;100060.72;;;31.03;34.15
19114;BME280;9689;51.052;13.772;2023-08-24T15:17:18;100055.81;;;31.06;34.19
19114;BME280;9689;51.052;13.772;2023-08-24T15:22:20;100061.69;;;31.10;34.00
19114;BME280;9689;51.052;13.772;2023-08-24T15:27:21;100045.91;;;31.31;33.87
19114;BME280;9689;51.052;13.772;2023-08-24T15:32:23;100058.16;;;31.17;34.04
19114;BME280;9689;51.052;13.772;2023-08-24T15:37:25;100050.44;;;31.14;33.84
19114;BME280;9689;51.052;13.772;2023-08-24T15:42:26;100050.78;;;31.11;33.98
19114;BME280;9689;51.052;13.772;2023-08-24T15:47:26;100040.16;;;31.10;34.63
19114;BME280;9689;51.052;13.772;2023-08-24T15:52:29;100027.53;;;31.27;33.28
19114;BME280;9689;51.052;13.772;2023-08-24T15:57:30;100015.44;;;31.22;33.50
19114;BME280;9689;51.052;13.772;2023-08-24T16:02:30;100018.66;;;30.77;33.85
19114;BME280;9689;51.052;13.772;2023-08-24T16:07:32;100005.81;;;30.63;34.61
19114;BME280;9689;51.052;13.772;2023-08-24T16:12:35;100007.53;;;31.29;33.89
19114;BME280;9689;51.052;13.772;2023-08-24T16:17:36;99993.97;;;31.54;33.25
19114;BME280;9689;51.052;13.772;2023-08-24T16:22:39;99997.09;;;31.26;33.54
19114;BME280;9689;51.052;13.772;2023-08-24T16:27:39;99995.09;;;30.71;34.33
19114;BME280;9689;51.052;13.772;2023-08-24T16:32:40;100003.31;;;30.03;35.21
19114;BME280;9689;51.052;13.772;2023-08-24T16:37:45;100005.22;;;29.68;35.85
19114;BME280;9689;51.052;13.772;2023-08-24T16:42:45;100016.50;;;29.46;36.34
19114;BME280;9689;51.052;13.772;2023-08-24T16:47:46;100002.31;;;29.36;37.38
19114;BME280;9689;51.052;13.772;2023-08-24T16:52:49;99995.31;;;29.43;37.36
19114;BME280;9689;51.052;13.772;2023-08-24T16:57:49;99987.66;;;29.22;37.88
19114;BME280;9689;51.052;13.772;2023-08-24T17:02:51;99986.03;;;29.03;37.56
19114;BME280;9689;51.052;13.772;2023-08-24T17:08:04;99991.88;;;29.93;37.36
19114;BME280;9689;51.052;13.772;2023-08-24T17:13:06;99980.44;;;31.78;33.93
19114;BME280;9689;51.052;13.772;2023-08-24T17:18:06;99975.75;;;32.42;32.39
19114;BME280;9689;51.052;13.772;2023-08-24T17:23:09;99984.84;;;30.83;34.89
19114;BME280;9689;51.052;13.772;2023-08-24T17:28:10;99972.63;;;29.63;37.22
19114;BME280;9689;51.052;13.772;2023-08-24T17:33:10;99973.00;;;28.72;39.48
19114;BME280;9689;51.052;13.772;2023-08-24T17:38:13;99968.47;;;28.20;40.74
19114;BME280;9689;51.052;13.772;2023-08-24T17:43:13;99966.94;;;27.72;42.17
19114;BME280;9689;51.052;13.772;2023-08-24T17:48:14;99963.13;;;27.27;43.18
19114;BME280;9689;51.052;13.772;2023-08-24T17:53:16;99961.38;;;26.89;43.95
19114;BME280;9689;51.052;13.772;2023-08-24T17:58:17;99973.94;;;26.60;44.86
19114;BME280;9689;51.052;13.772;2023-08-24T18:03:18;99972.25;;;26.39;46.07
19114;BME280;9689;51.052;13.772;2023-08-24T18:08:21;99988.50;;;26.17;45.95
19114;BME280;9689;51.052;13.772;2023-08-24T18:13:22;99999.28;;;25.96;47.47
19114;BME280;9689;51.052;13.772;2023-08-24T18:18:23;99988.81;;;25.74;47.37
19114;BME280;9689;51.052;13.772;2023-08-24T18:23:25;100003.88;;;25.54;47.96
19114;BME280;9689;51.052;13.772;2023-08-24T18:28:26;100007.22;;;25.46;49.07
19114;BME280;9689;51.052;13.772;2023-08-24T18:33:27;100012.84;;;25.22;49.16
19114;BME280;9689;51.052;13.772;2023-08-24T18:38:29;100012.31;;;25.07;49.67
19114;BME280;9689;51.052;13.772;2023-08-24T18:43:30;100005.72;;;24.91;50.65
19114;BME280;9689;51.052;13.772;2023-08-24T18:48:31;99967.44;;;24.71;51.32
19114;BME280;9689;51.052;13.772;2023-08-24T18:53:33;99961.06;;;24.62;52.41
19114;BME280;9689;51.052;13.772;2023-08-24T18:58:34;99964.75;;;24.50;52.18
19114;BME280;9689;51.052;13.772;2023-08-24T19:03:35;99972.53;;;24.42;52.39
19114;BME280;9689;51.052;13.772;2023-08-24T19:08:37;99963.31;;;24.46;52.65
19114;BME280;9689;51.052;13.772;2023-08-24T19:13:37;99959.75;;;24.57;53.16
19114;BME280;9689;51.052;13.772;2023-08-24T19:18:38;99955.53;;;24.54;52.44
19114;BME280;9689;51.052;13.772;2023-08-24T19:23:41;99926.41;;;24.62;52.33
19114;BME280;9689;51.052;13.772;2023-08-24T19:28:42;99907.09;;;24.49;52.40
19114;BME280;9689;51.052;13.772;2023-08-24T19:33:45;99902.31;;;24.43;52.46
19114;BME280;9689;51.052;13.772;2023-08-24T19:38:47;99903.06;;;24.34;52.44
19114;BME280;9689;51.052;13.772;2023-08-24T19:43:48;99882.63;;;24.23;52.49
19114;BME280;9689;51.052;13.772;2023-08-24T19:48:48;99860.59;;;24.21;52.18
19114;BME280;9689;51.052;13.772;2023-08-24T19:53:51;99852.88;;;24.18;52.18
19114;BME280;9689;51.052;13.772;2023-08-24T19:58:51;99855.06;;;24.13;52.39
19114;BME280;9689;51.052;13.772;2023-08-24T20:03:53;99855.75;;;24.26;51.84
19114;BME280;9689;51.052;13.772;2023-08-24T20:08:56;99845.72;;;24.18;51.96
19114;BME280;9689;51.052;13.772;2023-08-24T20:13:57;99836.69;;;24.10;51.62
19114;BME280;9689;51.052;13.772;2023-08-24T20:18:58;99829.72;;;23.97;52.14
19114;BME280;9689;51.052;13.772;2023-08-24T20:24:01;99823.56;;;23.97;51.81
19114;BME280;9689;51.052;13.772;2023-08-24T20:29:03;99824.22;;;23.89;51.68
19114;BME280;9689;51.052;13.772;2023-08-24T20:34:04;99821.72;;;23.77;52.23
19114;BME280;9689;51.052;13.772;2023-08-24T20:39:06;99811.91;;;23.77;52.52
19114;BME280;9689;51.052;13.772;2023-08-24T20:44:09;99814.00;;;23.62;52.91
19114;BME280;9689;51.052;13.772;2023-08-24T20:49:10;99823.78;;;23.73;52.59
19114;BME280;9689;51.052;13.772;2023-08-24T20:54:12;99818.22;;;23.54;52.95
19114;BME280;9689;51.052;13.772;2023-08-24T20:59:13;99819.34;;;23.51;53.30
19114;BME280;9689;51.052;13.772;2023-08-24T21:04:13;99834.59;;;23.49;53.10
19114;BME280;9689;51.052;13.772;2023-08-24T21:09:15;99828.88;;;23.54;53.05
19114;BME280;9689;51.052;13.772;2023-08-24T21:14:16;99826.97;;;23.56;53.43
19114;BME280;9689;51.052;13.772;2023-08-24T21:19:17;99822.84;;;23.52;53.55
19114;BME280;9689;51.052;13.772;2023-08-24T21:24:20;99826.88;;;23.46;53.79
19114;BME280;9689;51.052;13.772;2023-08-24T21:29:20;99832.63;;;23.62;53.29
19114;BME280;9689;51.052;13.772;2023-08-24T21:34:21;99837.94;;;23.62;53.35
19114;BME280;9689;51.052;13.772;2023-08-24T21:39:23;99834.69;;;23.59;53.36
19114;BME280;9689;51.052;13.772;2023-08-24T21:44:24;99832.28;;;23.56;53.58
19114;BME280;9689;51.052;13.772;2023-08-24T21:49:25;99820.91;;;23.54;53.67
19114;BME280;9689;51.052;13.772;2023-08-24T21:54:27;99816.69;;;23.51;53.60
19114;BME280;9689;51.052;13.772;2023-08-24T21:59:28;99814.19;;;23.38;54.47
19114;BME280;9689;51.052;13.772;2023-08-24T22:04:29;99810.91;;;23.35;54.36
19114;BME280;9689;51.052;13.772;2023-08-24T22:09:31;99806.34;;;23.37;54.47
19114;BME280;9689;51.052;13.772;2023-08-24T22:14:32;99798.72;;;23.32;54.78
19114;BME280;9689;51.052;13.772;2023-08-24T22:19:33;99794.72;;;23.38;54.47
19114;BME280;9689;51.052;13.772;2023-08-24T22:24:35;99786.50;;;23.41;54.13
19114;BME280;9689;51.052;13.772;2023-08-24T22:29:36;99798.94;;;23.40;54.24
19114;BME280;9689;51.052;13.772;2023-08-24T22:34:37;99787.59;;;23.38;54.49
19114;BME280;9689;51.052;13.772;2023-08-24T22:39:39;99806.44;;;23.47;54.21
19114;BME280;9689;51.052;13.772;2023-08-24T22:44:40;99807.28;;;23.47;54.22
19114;BME280;9689;51.052;13.772;2023-08-24T22:49:41;99806.53;;;23.45;54.08
19114;BME280;9689;51.052;13.772;2023-08-24T22:54:43;99823.81;;;23.51;54.17
19114;BME280;9689;51.052;13.772;2023-08-24T22:59:44;99832.06;;;23.48;54.06
19114;BME280;9689;51.052;13.772;2023-08-24T23:04:45;99837.50;;;23.35;54.50
19114;BME280;9689;51.052;13.772;2023-08-24T23:09:47;99841.75;;;23.37;54.22
19114;BME280;9689;51.052;13.772;2023-08-24T23:14:48;99811.06;;;23.22;55.14
19114;BME280;9689;51.052;13.772;2023-08-24T23:19:49;99768.91;;;22.73;58.13
19114;BME280;9689;51.052;13.772;2023-08-24T23:24:51;99740.78;;;22.48;60.29
19114;BME280;9689;51.052;13.772;2023-08-24T23:29:51;99752.47;;;22.34;60.79
19114;BME280;9689;51.052;13.772;2023-08-24T23:34:56;99763.34;;;22.42;61.22
19114;BME280;9689;51.052;13.772;2023-08-24T23:39:58;99759.47;;;22.57;60.64
19114;BME280;9689;51.052;13.772;2023-08-24T23:44:59;99755.59;;;22.84;58.57
19114;BME280;9689;51.052;13.772;2023-08-24T23:49:59;99729.41;;;23.02;58.00
19114;BME280;9689;51.052;13.772;2023-08-24T23:55:05;99723.97;;;23.15;57.07
